createdAt,value
2023-05-12T00:01:16.756Z,97657.59
2023-05-12T00:04:19.254Z,97659.78
2023-05-12T00:07:21.418Z,97655.50
2023-05-12T00:10:23.880Z,97657.34
2023-05-12T00:13:26.043Z,97630.38
2023-05-12T00:16:28.281Z,97666.38
2023-05-12T00:19:31.471Z,97662.91
2023-05-12T00:22:33.865Z,97656.00
2023-05-12T00:25:36.635Z,97653.69
2023-05-12T00:28:38.775Z,97661.78
2023-05-12T00:31:41.004Z,97658.06
2023-05-12T00:34:44.139Z,97650.69
2023-05-12T00:37:46.510Z,97650.44
2023-05-12T00:40:48.792Z,97648.00
2023-05-12T00:43:51.246Z,97649.03
2023-05-12T00:46:53.609Z,97655.19
2023-05-12T00:49:56.638Z,97653.09
2023-05-12T00:53:01.080Z,97665.81
2023-05-12T00:56:03.289Z,97649.88
2023-05-12T00:59:06.520Z,97654.94
2023-05-12T01:02:09.675Z,97653.88
2023-05-12T01:05:12.495Z,97656.56
2023-05-12T01:08:20.412Z,97657.13
2023-05-12T01:11:23.699Z,97658.97
2023-05-12T01:14:25.744Z,97656.31
2023-05-12T01:17:36.083Z,97658.75
2023-05-12T01:20:43.209Z,97655.28
2023-05-12T01:23:52.059Z,97660.13
2023-05-12T01:26:54.309Z,97661.72
2023-05-12T01:29:59.385Z,97667.03
2023-05-12T01:33:02.217Z,97659.06
2023-05-12T01:36:05.088Z,97668.69
2023-05-12T01:39:07.775Z,97661.50
2023-05-12T01:42:10.539Z,97665.44
2023-05-12T01:45:12.801Z,97664.38
2023-05-12T01:48:15.217Z,97653.75
2023-05-12T01:51:18.093Z,97656.09
2023-05-12T01:54:20.509Z,97651.34
2023-05-12T01:57:22.894Z,97658.25
2023-05-12T02:00:28.182Z,97661.72
2023-05-12T02:03:33.091Z,97661.63
2023-05-12T02:06:35.205Z,97652.03
2023-05-12T02:09:37.950Z,97661.41
2023-05-12T02:12:40.219Z,97664.28
2023-05-12T02:15:42.295Z,97660.59
2023-05-12T02:18:44.475Z,97658.97
2023-05-12T02:21:47.225Z,97657.94
2023-05-12T02:24:49.446Z,97663.72
2023-05-12T02:27:51.875Z,97654.50
2023-05-12T02:30:54.537Z,97665.00
2023-05-12T02:33:59.155Z,97663.63
2023-05-12T02:37:01.542Z,97660.50
2023-05-12T02:40:05.031Z,97658.66
2023-05-12T02:43:07.505Z,97655.69
2023-05-12T02:46:11.227Z,97655.81
2023-05-12T02:49:13.982Z,97651.19
2023-05-12T02:52:16.139Z,97662.88
2023-05-12T02:55:18.363Z,97662.41
2023-05-12T02:58:20.541Z,97661.38
2023-05-12T03:01:23.252Z,97660.75
2023-05-12T03:04:25.749Z,97664.59
2023-05-12T03:07:28.211Z,97668.28
2023-05-12T03:10:31.359Z,97663.22
2023-05-12T03:13:33.793Z,97666.94
2023-05-12T03:16:36.177Z,97663.47
2023-05-12T03:19:38.714Z,97670.97
2023-05-12T03:22:40.947Z,97668.88
2023-05-12T03:25:44.961Z,97666.81
2023-05-12T03:28:48.249Z,97653.19
2023-05-12T03:31:50.567Z,97660.31
2023-05-12T03:34:52.868Z,97663.00
2023-05-12T03:37:55.467Z,97659.44
2023-05-12T03:41:07.768Z,97645.31
2023-05-12T03:44:11.441Z,97651.47
2023-05-12T03:47:13.949Z,97651.91
2023-05-12T03:50:16.624Z,97661.75
2023-05-12T03:53:19.513Z,97662.78
2023-05-12T03:56:21.708Z,97663.81
2023-05-12T03:59:23.896Z,97670.19
2023-05-12T04:02:27.222Z,97668.56
2023-05-12T04:05:29.874Z,97668.31
2023-05-12T04:08:32.161Z,97668.88
2023-05-12T04:11:35.243Z,97675.72
2023-05-12T04:14:42.829Z,97670.88
2023-05-12T04:17:45.466Z,97680.72
2023-05-12T04:20:47.701Z,97679.06
2023-05-12T04:23:53.027Z,97679.75
2023-05-12T04:26:58.008Z,97678.97
2023-05-12T04:30:00.808Z,97689.59
2023-05-12T04:33:04.547Z,97691.44
2023-05-12T04:36:07.639Z,97683.94
2023-05-12T04:39:10.609Z,97694.91
2023-05-12T04:42:12.767Z,97697.56
2023-05-12T04:45:15.214Z,97692.03
2023-05-12T04:48:18.050Z,97702.06
2023-05-12T04:51:20.300Z,97700.00
2023-05-12T04:54:22.778Z,97697.34
2023-05-12T04:57:25.512Z,97701.63
2023-05-12T05:00:27.681Z,97701.72
2023-05-12T05:03:30.825Z,97697.91
2023-05-12T05:06:33.297Z,97704.38
2023-05-12T05:09:36.719Z,97698.25
2023-05-12T05:12:40.182Z,97692.72
2023-05-12T05:15:53.304Z,97693.06
2023-05-12T05:18:58.276Z,97703.59
2023-05-12T05:22:00.913Z,97696.16
2023-05-12T05:25:03.257Z,97700.22
2023-05-12T05:28:05.886Z,97700.22
2023-05-12T05:31:08.924Z,97702.66
2023-05-12T05:34:11.264Z,97700.78
2023-05-12T05:37:13.822Z,97701.94
2023-05-12T05:40:16.497Z,97694.78
2023-05-12T05:43:19.065Z,97701.50
2023-05-12T05:46:21.366Z,97689.56
2023-05-12T05:49:24.056Z,97701.69
2023-05-12T05:52:26.858Z,97701.69
2023-05-12T05:55:29.046Z,97702.75
2023-05-12T05:58:31.959Z,97702.19
2023-05-12T06:01:37.535Z,97701.69
2023-05-12T06:04:39.974Z,97713.63
2023-05-12T06:07:42.519Z,97722.53
2023-05-12T06:10:44.773Z,97712.78
2023-05-12T06:13:46.948Z,97711.88
2023-05-12T06:16:49.332Z,97724.72
2023-05-12T06:19:51.610Z,97725.75
2023-05-12T06:22:53.766Z,97730.72
2023-05-12T06:25:56.475Z,97722.75
2023-05-12T06:28:58.624Z,97729.78
2023-05-12T06:32:01.831Z,97724.97
2023-05-12T06:35:06.784Z,97727.03
2023-05-12T06:38:09.021Z,97725.97
2023-05-12T06:41:11.909Z,97733.41
2023-05-12T06:44:14.961Z,97735.81
2023-05-12T06:47:17.643Z,97734.41
2023-05-12T06:50:19.886Z,97736.28
2023-05-12T06:53:26.992Z,97741.25
2023-05-12T06:56:29.992Z,97742.63
2023-05-12T06:59:32.216Z,97737.66
2023-05-12T07:02:34.412Z,97733.97
2023-05-12T07:05:37.895Z,97739.72
2023-05-12T07:08:40.997Z,97735.81
2023-05-12T07:11:43.235Z,97744.03
2023-05-12T07:14:45.641Z,97739.16
2023-05-12T07:17:48.374Z,97747.22
2023-05-12T07:20:50.864Z,97736.16
2023-05-12T07:23:53.362Z,97731.66
2023-05-12T07:26:55.657Z,97728.41
2023-05-12T07:29:58.194Z,97730.84
2023-05-12T07:33:01.814Z,97730.03
2023-05-12T07:36:09.185Z,97739.94
2023-05-12T07:39:11.457Z,97740.75
2023-05-12T07:42:13.570Z,97744.38
2023-05-12T07:45:23.125Z,97743.56
2023-05-12T07:48:25.272Z,97745.88
2023-05-12T07:51:27.727Z,97745.50
2023-05-12T07:54:29.989Z,97750.03
2023-05-12T07:57:32.450Z,97750.38
2023-05-12T08:00:34.790Z,97759.41
2023-05-12T08:03:37.116Z,97765.16
2023-05-12T08:06:39.351Z,97765.75
2023-05-12T08:09:41.474Z,97770.59
2023-05-12T08:12:44.045Z,97767.56
2023-05-12T08:15:48.140Z,97762.97
2023-05-12T08:18:50.328Z,97765.97
2023-05-12T08:21:52.675Z,97768.06
2023-05-12T08:24:54.817Z,97776.25
2023-05-12T08:27:58.344Z,97775.00
2023-05-12T08:31:02.755Z,97781.59
2023-05-12T08:34:10.781Z,97777.91
2023-05-12T08:37:16.837Z,97778.91
2023-05-12T08:40:22.519Z,97776.63
2023-05-12T08:43:27.305Z,97777.53
2023-05-12T08:46:32.872Z,97768.88
2023-05-12T08:49:36.693Z,97772.56
2023-05-12T08:52:39.758Z,97757.44
2023-05-12T08:55:57.059Z,97787.38
2023-05-12T08:59:09.964Z,97780.75
2023-05-12T09:02:13.928Z,97774.78
2023-05-12T09:05:16.161Z,97784.72
2023-05-12T09:08:18.501Z,97782.97
2023-05-12T09:11:24.341Z,97780.78
2023-05-12T09:14:26.496Z,97797.75
2023-05-12T09:17:28.914Z,97807.50
2023-05-12T09:20:32.217Z,97810.38
2023-05-12T09:23:34.730Z,97803.06
2023-05-12T09:26:48.243Z,97812.00
2023-05-12T09:29:59.325Z,97804.56
2023-05-12T09:33:13.453Z,97812.56
2023-05-12T09:36:20.401Z,97818.91
2023-05-12T09:39:22.580Z,97815.09
2023-05-12T09:42:29.367Z,97815.47
2023-05-12T09:45:39.157Z,97814.75
2023-05-12T09:48:41.907Z,97818.13
2023-05-12T09:51:44.119Z,97825.53
2023-05-12T09:54:48.016Z,97814.41
2023-05-12T09:57:50.859Z,97830.50
2023-05-12T10:04:00.316Z,97826.09
2023-05-12T10:07:02.609Z,97817.97
2023-05-12T10:10:07.622Z,97824.34
2023-05-12T10:13:14.433Z,97828.72
2023-05-12T10:16:16.990Z,97822.72
2023-05-12T10:19:20.351Z,97812.56
2023-05-12T10:22:23.995Z,97827.47
2023-05-12T10:25:26.312Z,97828.94
2023-05-12T10:28:31.613Z,97820.06
2023-05-12T10:31:36.259Z,97821.56
2023-05-12T10:34:40.328Z,97824.47
2023-05-12T10:37:43.699Z,97841.13
2023-05-12T10:41:01.389Z,97833.97
2023-05-12T10:44:03.626Z,97827.59
2023-05-12T10:47:15.372Z,97825.72
2023-05-12T10:50:27.746Z,97833.63
2023-05-12T10:53:47.822Z,97833.13
2023-05-12T10:56:51.633Z,97834.78
2023-05-12T10:59:58.803Z,97839.50
2023-05-12T11:03:09.900Z,97836.97
2023-05-12T11:06:19.771Z,97834.56
2023-05-12T11:09:22.724Z,97831.66
2023-05-12T11:12:29.314Z,97840.88
2023-05-12T11:15:31.821Z,97842.53
2023-05-12T11:18:34.025Z,97854.53
2023-05-12T11:21:37.393Z,97841.72
2023-05-12T11:24:42.639Z,97848.97
2023-05-12T11:27:51.803Z,97853.28
2023-05-12T11:30:55.392Z,97852.13
2023-05-12T11:34:13.246Z,97855.22
2023-05-12T11:37:15.686Z,97854.66
2023-05-12T11:40:19.855Z,97858.25
2023-05-12T11:43:22.916Z,97863.44
2023-05-12T11:46:29.863Z,97867.59
2023-05-12T11:49:32.613Z,97871.66
2023-05-12T11:52:35.596Z,97865.88
2023-05-12T11:55:37.979Z,97866.44
2023-05-12T11:58:40.094Z,97869.91
2023-05-12T12:01:49.155Z,97873.72
2023-05-12T12:04:51.296Z,97875.56
2023-05-12T12:08:08.404Z,97876.38
2023-05-12T12:11:11.770Z,97877.53
2023-05-12T12:14:13.910Z,97882.63
2023-05-12T12:17:16.809Z,97889.19
2023-05-12T12:20:19.203Z,97882.94
2023-05-12T12:23:21.274Z,97883.19
2023-05-12T12:26:23.885Z,97884.66
2023-05-12T12:29:28.552Z,97882.81
2023-05-12T12:32:31.507Z,97889.97
2023-05-12T12:35:33.889Z,97889.41
2023-05-12T12:38:36.134Z,97894.13
2023-05-12T12:41:38.352Z,97897.47
2023-05-12T12:44:40.783Z,97900.34
2023-05-12T12:47:43.398Z,97899.91
2023-05-12T12:50:45.554Z,97905.44
2023-05-12T12:53:47.944Z,97900.94
2023-05-12T12:56:50.711Z,97902.44
2023-05-12T12:59:52.929Z,97895.94
2023-05-12T13:02:56.256Z,97906.66
2023-05-12T13:05:58.641Z,97907.69
2023-05-12T13:09:01.917Z,97908.31
2023-05-12T13:12:04.612Z,97911.09
2023-05-12T13:15:08.047Z,97902.25
2023-05-12T13:18:10.723Z,97903.84
2023-05-12T13:21:12.975Z,97892.28
2023-05-12T13:24:15.106Z,97885.66
2023-05-12T13:27:17.247Z,97901.06
2023-05-12T13:30:19.477Z,97894.94
2023-05-12T13:33:21.947Z,97888.38
2023-05-12T13:36:25.167Z,97898.88
2023-05-12T13:39:27.254Z,97893.72
2023-05-12T13:42:29.618Z,97889.44
2023-05-12T13:45:31.691Z,97891.19
2023-05-12T13:48:33.904Z,97899.16
2023-05-12T13:51:36.270Z,97897.66
2023-05-12T13:54:38.763Z,97898.25
2023-05-12T13:57:41.437Z,97892.56
2023-05-12T14:00:43.530Z,97904.00
2023-05-12T14:03:46.292Z,97909.91
2023-05-12T14:06:48.520Z,97902.19
2023-05-12T14:09:50.618Z,97907.25
2023-05-12T14:12:53.145Z,97901.72
2023-05-12T14:15:55.574Z,97907.81
2023-05-12T14:18:58.147Z,97908.88
2023-05-12T14:22:00.241Z,97911.28
2023-05-12T14:25:03.078Z,97911.09
2023-05-12T14:28:05.274Z,97913.63
2023-05-12T14:31:07.782Z,97918.72
2023-05-12T14:34:10.308Z,97916.41
2023-05-12T14:37:12.712Z,97920.44
2023-05-12T14:40:15.953Z,97920.09
2023-05-12T14:43:18.337Z,97920.09
2023-05-12T14:46:20.535Z,97921.47
2023-05-12T14:49:23.115Z,97922.06
2023-05-12T14:52:25.237Z,97921.25
2023-05-12T14:55:28.561Z,97926.22
2023-05-12T14:58:31.100Z,97920.78
2023-05-12T15:01:33.399Z,97928.06
2023-05-12T15:04:36.867Z,97928.06
2023-05-12T15:07:40.011Z,97923.56
2023-05-12T15:10:42.197Z,97927.38
2023-05-12T15:13:44.693Z,97924.50
2023-05-12T15:16:47.111Z,97926.94
2023-05-12T15:19:49.194Z,97927.97
2023-05-12T15:22:52.567Z,97915.78
2023-05-12T15:25:54.766Z,97918.13
2023-05-12T15:28:56.848Z,97917.00
2023-05-12T15:31:59.271Z,97919.72
2023-05-12T15:35:01.398Z,97929.31
2023-05-12T15:38:03.607Z,97905.94
2023-05-12T15:41:06.269Z,97926.00
2023-05-12T15:44:08.721Z,97919.63
2023-05-12T15:47:11.439Z,97923.56
2023-05-12T15:50:16.497Z,97920.00
2023-05-12T15:53:20.313Z,97926.09
2023-05-12T15:56:23.261Z,97922.38
2023-05-12T15:59:26.344Z,97919.59
2023-05-12T16:02:28.567Z,97919.38
2023-05-12T16:05:32.102Z,97918.78
2023-05-12T16:08:34.364Z,97916.94
2023-05-12T16:11:36.457Z,97914.50
2023-05-12T16:14:38.971Z,97923.97
2023-05-12T16:17:41.468Z,97923.38
2023-05-12T16:20:44.847Z,97924.97
2023-05-12T16:23:47.188Z,97914.34
2023-05-12T16:26:49.284Z,97935.41
2023-05-12T16:29:53.696Z,97923.50
2023-05-12T16:32:57.168Z,97924.09
2023-05-12T16:35:59.346Z,97921.88
2023-05-12T16:39:02.062Z,97911.00
2023-05-12T16:42:04.448Z,97941.53
2023-05-12T16:45:07.488Z,97940.91
2023-05-12T16:48:09.694Z,97939.53
2023-05-12T16:51:12.542Z,97946.09
2023-05-12T16:54:14.770Z,97944.72
2023-05-12T16:57:16.898Z,97942.63
2023-05-12T17:00:19.257Z,97946.56
2023-05-12T17:03:21.464Z,97944.94
2023-05-12T17:06:23.769Z,97940.88
2023-05-12T17:09:25.994Z,97935.06
2023-05-12T17:12:28.602Z,97936.91
2023-05-12T17:15:31.190Z,97949.50
2023-05-12T17:21:56.318Z,97951.28
2023-05-12T17:24:58.688Z,97961.56
2023-05-12T17:28:00.820Z,97950.31
2023-05-12T17:31:03.066Z,97955.94
2023-05-12T17:34:05.417Z,97946.00
2023-05-12T17:37:08.049Z,97954.31
2023-05-12T17:40:16.356Z,97966.56
2023-05-12T17:43:18.805Z,97964.13
2023-05-12T17:46:21.047Z,97953.72
2023-05-12T17:49:23.169Z,97960.66
2023-05-12T17:52:26.125Z,97965.38
2023-05-12T17:55:28.953Z,97964.59
2023-05-12T17:58:31.508Z,97961.13
2023-05-12T18:01:34.820Z,97967.44
2023-05-12T18:04:37.274Z,97950.69
2023-05-12T18:07:39.507Z,97968.84
2023-05-12T18:10:42.082Z,97962.13
2023-05-12T18:13:44.302Z,97961.56
2023-05-12T18:16:46.433Z,97966.84
2023-05-12T18:19:48.761Z,97962.59
2023-05-12T18:22:51.996Z,97963.16
2023-05-12T18:25:54.281Z,97965.00
2023-05-12T18:28:56.535Z,97952.25
2023-05-12T18:31:58.656Z,97967.91
2023-05-12T18:35:00.918Z,97953.53
2023-05-12T18:38:03.498Z,97970.31
2023-05-12T18:41:05.762Z,97977.25
2023-05-12T18:44:09.125Z,97976.22
2023-05-12T18:47:11.858Z,97977.47
2023-05-12T18:50:14.354Z,97992.09
2023-05-12T18:53:17.060Z,97988.41
2023-05-12T18:56:19.580Z,97983.88
2023-05-12T18:59:22.438Z,97990.00
2023-05-12T19:02:24.950Z,97983.00
2023-05-12T19:05:27.418Z,97995.56
2023-05-12T19:08:30.940Z,97998.22
2023-05-12T19:11:33.529Z,97998.44
2023-05-12T19:14:35.828Z,97992.28
2023-05-12T19:17:38.181Z,97994.13
2023-05-12T19:20:40.842Z,97997.41
2023-05-12T19:23:43.882Z,98006.03
2023-05-12T19:26:46.152Z,98003.16
2023-05-12T19:29:49.580Z,98001.09
2023-05-12T19:32:53.687Z,98011.09
2023-05-12T19:35:56.849Z,97996.59
2023-05-12T19:39:00.616Z,97999.69
2023-05-12T19:42:04.191Z,98013.34
2023-05-12T19:45:10.131Z,98002.91
2023-05-12T19:48:17.686Z,98012.53
2023-05-12T19:51:22.005Z,98006.97
2023-05-12T19:54:26.978Z,98006.97
2023-05-12T19:57:30.027Z,98014.16
2023-05-12T20:00:34.538Z,98008.84
2023-05-12T20:03:37.740Z,98006.41
2023-05-12T20:06:41.202Z,98013.34
2023-05-12T20:09:44.129Z,98018.78
2023-05-12T20:12:46.610Z,98017.59
2023-05-12T20:15:49.208Z,98012.06
2023-05-12T20:18:51.986Z,98012.88
2023-05-12T20:21:54.805Z,98007.56
2023-05-12T20:25:04.489Z,98006.19
2023-05-12T20:28:10.067Z,98009.88
2023-05-12T20:31:12.648Z,97990.75
2023-05-12T20:34:15.467Z,97981.59
2023-05-12T20:37:18.794Z,97998.06
2023-05-12T20:40:22.233Z,98000.50
2023-05-12T20:43:24.556Z,97994.38
2023-05-12T20:46:28.931Z,97991.06
2023-05-12T20:49:31.893Z,97993.34
2023-05-12T20:52:37.562Z,97996.78
2023-05-12T20:55:44.399Z,97989.44
2023-05-12T20:58:47.459Z,98004.56
2023-05-12T21:01:50.330Z,97995.41
2023-05-12T21:04:53.933Z,97997.59
2023-05-12T21:07:56.602Z,97999.44
2023-05-12T21:11:00.616Z,98005.22
2023-05-12T21:14:04.758Z,98003.00
2023-05-12T21:17:08.663Z,98005.66
2023-05-12T21:20:13.442Z,98000.34
2023-05-12T21:23:16.220Z,98005.88
2023-05-12T21:26:18.509Z,98004.59
2023-05-12T21:29:21.522Z,98000.34
2023-05-12T21:32:24.282Z,98007.28
2023-05-12T21:35:27.342Z,97994.38
2023-05-12T21:38:32.677Z,97994.00
2023-05-12T21:41:35.725Z,97995.84
2023-05-12T21:44:39.860Z,98002.75
2023-05-12T21:47:42.430Z,98008.44
2023-05-12T21:50:46.606Z,97990.66
2023-05-12T21:53:49.066Z,97995.78
2023-05-12T21:56:57.168Z,98002.91
2023-05-12T22:00:04.488Z,98000.88
2023-05-12T22:03:13.613Z,98006.56
2023-05-12T22:06:17.273Z,97990.09
2023-05-12T22:09:20.701Z,97996.59
2023-05-12T22:12:23.450Z,97998.22
2023-05-12T22:15:26.222Z,98005.72
2023-05-12T22:18:29.186Z,98003.06
2023-05-12T22:21:32.117Z,97996.75
2023-05-12T22:24:34.963Z,97997.16
2023-05-12T22:27:38.116Z,97990.09
2023-05-12T22:30:42.071Z,97771.50
2023-05-12T22:33:47.753Z,97680.25
2023-05-12T22:36:50.762Z,97938.84
2023-05-12T22:39:53.399Z,97867.44
2023-05-12T22:42:59.330Z,97856.63
2023-05-12T22:46:02.576Z,97959.22
2023-05-12T22:49:06.309Z,97758.34
2023-05-12T22:52:08.962Z,98031.13
2023-05-12T22:55:11.948Z,97704.94
2023-05-12T22:58:14.911Z,97882.88
2023-05-12T23:01:17.777Z,97774.13
2023-05-12T23:04:20.368Z,97732.88
2023-05-12T23:07:23.466Z,97692.84
2023-05-12T23:10:26.187Z,97849.13
2023-05-12T23:13:29.831Z,97999.41
2023-05-12T23:16:32.467Z,97952.06
2023-05-12T23:19:37.744Z,97942.56
2023-05-12T23:22:40.174Z,97936.78
2023-05-12T23:25:43.236Z,97719.31
2023-05-12T23:28:46.379Z,97962.72
2023-05-12T23:31:48.959Z,97996.88
2023-05-12T23:34:52.132Z,97590.50
2023-05-12T23:37:54.838Z,97784.56
2023-05-12T23:40:59.475Z,97709.25
2023-05-12T23:44:02.568Z,97618.16
2023-05-12T23:47:05.235Z,97810.06
2023-05-12T23:50:13.300Z,97820.28
2023-05-12T23:53:16.724Z,97606.13
2023-05-12T23:56:19.106Z,97716.72
2023-05-12T23:59:21.621Z,97671.88
